sensor_id;sensor_type;location;lat;lon;timestamp;P1;durP1;ratioP1;P2;durP2;ratioP2
43807;SDS011;29438;50.664;10.098;2023-08-06T00:02:12;4.63;;;2.20;;
43807;SDS011;29438;50.664;10.098;2023-08-06T00:04:38;5.60;;;2.22;;
43807;SDS011;29438;50.664;10.098;2023-08-06T00:07:04;4.50;;;2.58;;
43807;SDS011;29438;50.664;10.098;2023-08-06T00:09:29;3.90;;;2.38;;
43807;SDS011;29438;50.664;10.098;2023-08-06T00:11:55;4.50;;;2.50;;
43807;SDS011;29438;50.664;10.098;2023-08-06T00:14:20;3.78;;;2.20;;
43807;SDS011;29438;50.664;10.098;2023-08-06T00:16:46;3.60;;;2.20;;
43807;SDS011;29438;50.664;10.098;2023-08-06T00:19:12;4.20;;;2.25;;
43807;SDS011;29438;50.664;10.098;2023-08-06T00:21:37;5.32;;;2.40;;
43807;SDS011;29438;50.664;10.098;2023-08-06T00:24:03;4.53;;;2.60;;
43807;SDS011;29438;50.664;10.098;2023-08-06T00:26:28;4.95;;;2.63;;
43807;SDS011;29438;50.664;10.098;2023-08-06T00:28:54;3.40;;;2.30;;
43807;SDS011;29438;50.664;10.098;2023-08-06T00:31:19;4.90;;;2.40;;
43807;SDS011;29438;50.664;10.098;2023-08-06T00:33:45;4.60;;;2.50;;
43807;SDS011;29438;50.664;10.098;2023-08-06T00:36:10;3.83;;;2.50;;
43807;SDS011;29438;50.664;10.098;2023-08-06T00:38:36;3.50;;;2.38;;
43807;SDS011;29438;50.664;10.098;2023-08-06T00:41:02;3.40;;;2.38;;
43807;SDS011;29438;50.664;10.098;2023-08-06T00:43:27;4.18;;;2.17;;
43807;SDS011;29438;50.664;10.098;2023-08-06T00:45:53;3.95;;;2.47;;
43807;SDS011;29438;50.664;10.098;2023-08-06T00:48:18;3.95;;;2.50;;
43807;SDS011;29438;50.664;10.098;2023-08-06T00:50:45;4.10;;;2.60;;
43807;SDS011;29438;50.664;10.098;2023-08-06T00:53:11;3.22;;;2.17;;
43807;SDS011;29438;50.664;10.098;2023-08-06T00:55:37;3.38;;;2.28;;
43807;SDS011;29438;50.664;10.098;2023-08-06T00:58:03;3.60;;;2.47;;
43807;SDS011;29438;50.664;10.098;2023-08-06T01:00:29;4.72;;;2.55;;
43807;SDS011;29438;50.664;10.098;2023-08-06T01:02:54;5.20;;;2.30;;
43807;SDS011;29438;50.664;10.098;2023-08-06T01:05:21;4.35;;;2.70;;
43807;SDS011;29438;50.664;10.098;2023-08-06T01:13:43;3.95;;;2.78;;
43807;SDS011;29438;50.664;10.098;2023-08-06T01:16:18;5.30;;;2.85;;
43807;SDS011;29438;50.664;10.098;2023-08-06T01:18:44;5.10;;;2.78;;
43807;SDS011;29438;50.664;10.098;2023-08-06T01:21:20;4.60;;;2.80;;
43807;SDS011;29438;50.664;10.098;2023-08-06T01:23:46;4.10;;;2.63;;
43807;SDS011;29438;50.664;10.098;2023-08-06T01:31:27;4.47;;;2.88;;
43807;SDS011;29438;50.664;10.098;2023-08-06T01:34:00;4.68;;;2.78;;
43807;SDS011;29438;50.664;10.098;2023-08-06T01:36:27;4.43;;;3.10;;
43807;SDS011;29438;50.664;10.098;2023-08-06T01:38:53;4.07;;;2.55;;
43807;SDS011;29438;50.664;10.098;2023-08-06T01:41:19;3.17;;;1.95;;
43807;SDS011;29438;50.664;10.098;2023-08-06T01:43:45;2.78;;;1.75;;
43807;SDS011;29438;50.664;10.098;2023-08-06T01:46:10;3.22;;;1.95;;
43807;SDS011;29438;50.664;10.098;2023-08-06T01:48:36;2.78;;;1.80;;
43807;SDS011;29438;50.664;10.098;2023-08-06T01:51:05;3.45;;;1.60;;
43807;SDS011;29438;50.664;10.098;2023-08-06T01:53:32;3.28;;;1.52;;
43807;SDS011;29438;50.664;10.098;2023-08-06T01:55:57;2.42;;;1.50;;
43807;SDS011;29438;50.664;10.098;2023-08-06T01:58:23;3.42;;;1.60;;
43807;SDS011;29438;50.664;10.098;2023-08-06T02:00:49;2.75;;;1.58;;
43807;SDS011;29438;50.664;10.098;2023-08-06T02:03:15;2.33;;;1.40;;
43807;SDS011;29438;50.664;10.098;2023-08-06T02:05:40;3.13;;;1.48;;
43807;SDS011;29438;50.664;10.098;2023-08-06T02:08:06;3.20;;;1.88;;
43807;SDS011;29438;50.664;10.098;2023-08-06T02:10:31;2.08;;;1.23;;
43807;SDS011;29438;50.664;10.098;2023-08-06T02:12:57;2.92;;;1.20;;
43807;SDS011;29438;50.664;10.098;2023-08-06T02:15:23;2.45;;;1.27;;
43807;SDS011;29438;50.664;10.098;2023-08-06T02:17:48;3.25;;;1.30;;
43807;SDS011;29438;50.664;10.098;2023-08-06T02:20:14;2.38;;;1.33;;
43807;SDS011;29438;50.664;10.098;2023-08-06T02:22:39;1.90;;;1.10;;
43807;SDS011;29438;50.664;10.098;2023-08-06T02:25:05;1.90;;;1.13;;
43807;SDS011;29438;50.664;10.098;2023-08-06T02:27:31;4.32;;;1.20;;
43807;SDS011;29438;50.664;10.098;2023-08-06T02:29:56;3.45;;;1.30;;
43807;SDS011;29438;50.664;10.098;2023-08-06T02:32:22;2.05;;;1.25;;
43807;SDS011;29438;50.664;10.098;2023-08-06T02:34:47;2.78;;;1.20;;
43807;SDS011;29438;50.664;10.098;2023-08-06T02:37:13;2.70;;;1.30;;
43807;SDS011;29438;50.664;10.098;2023-08-06T02:39:38;2.97;;;1.58;;
43807;SDS011;29438;50.664;10.098;2023-08-06T02:42:08;2.50;;;1.50;;
43807;SDS011;29438;50.664;10.098;2023-08-06T02:44:34;2.38;;;1.27;;
43807;SDS011;29438;50.664;10.098;2023-08-06T02:47:00;3.15;;;1.50;;
43807;SDS011;29438;50.664;10.098;2023-08-06T02:49:25;4.03;;;1.45;;
43807;SDS011;29438;50.664;10.098;2023-08-06T02:51:51;2.58;;;1.60;;
43807;SDS011;29438;50.664;10.098;2023-08-06T02:54:17;2.70;;;1.35;;
43807;SDS011;29438;50.664;10.098;2023-08-06T02:56:44;3.78;;;1.58;;
43807;SDS011;29438;50.664;10.098;2023-08-06T02:59:12;2.78;;;1.35;;
43807;SDS011;29438;50.664;10.098;2023-08-06T03:01:38;2.50;;;1.40;;
43807;SDS011;29438;50.664;10.098;2023-08-06T03:04:04;2.85;;;1.45;;
43807;SDS011;29438;50.664;10.098;2023-08-06T03:06:30;3.15;;;1.40;;
43807;SDS011;29438;50.664;10.098;2023-08-06T03:08:55;2.97;;;1.40;;
43807;SDS011;29438;50.664;10.098;2023-08-06T03:11:21;2.40;;;1.40;;
43807;SDS011;29438;50.664;10.098;2023-08-06T03:13:47;2.65;;;1.45;;
43807;SDS011;29438;50.664;10.098;2023-08-06T03:16:13;2.58;;;1.63;;
43807;SDS011;29438;50.664;10.098;2023-08-06T03:18:39;3.72;;;1.77;;
43807;SDS011;29438;50.664;10.098;2023-08-06T03:21:04;2.28;;;1.52;;
43807;SDS011;29438;50.664;10.098;2023-08-06T03:23:30;3.45;;;1.70;;
43807;SDS011;29438;50.664;10.098;2023-08-06T03:25:56;3.00;;;1.65;;
43807;SDS011;29438;50.664;10.098;2023-08-06T03:28:25;3.05;;;1.60;;
43807;SDS011;29438;50.664;10.098;2023-08-06T03:30:58;2.85;;;1.63;;
43807;SDS011;29438;50.664;10.098;2023-08-06T03:33:24;2.72;;;1.88;;
43807;SDS011;29438;50.664;10.098;2023-08-06T03:35:50;5.28;;;1.55;;
43807;SDS011;29438;50.664;10.098;2023-08-06T03:38:15;3.00;;;1.80;;
43807;SDS011;29438;50.664;10.098;2023-08-06T03:40:41;4.28;;;1.80;;
43807;SDS011;29438;50.664;10.098;2023-08-06T03:43:06;2.95;;;1.80;;
43807;SDS011;29438;50.664;10.098;2023-08-06T03:45:32;3.70;;;1.92;;
43807;SDS011;29438;50.664;10.098;2023-08-06T03:47:57;3.50;;;2.00;;
43807;SDS011;29438;50.664;10.098;2023-08-06T03:50:23;3.70;;;2.25;;
43807;SDS011;29438;50.664;10.098;2023-08-06T03:52:49;4.20;;;2.30;;
43807;SDS011;29438;50.664;10.098;2023-08-06T03:55:14;4.13;;;2.33;;
43807;SDS011;29438;50.664;10.098;2023-08-06T03:57:40;8.23;;;2.50;;
43807;SDS011;29438;50.664;10.098;2023-08-06T04:00:06;4.10;;;2.35;;
43807;SDS011;29438;50.664;10.098;2023-08-06T04:02:32;4.03;;;2.30;;
43807;SDS011;29438;50.664;10.098;2023-08-06T04:04:57;6.03;;;2.38;;
43807;SDS011;29438;50.664;10.098;2023-08-06T04:07:24;4.53;;;2.42;;
43807;SDS011;29438;50.664;10.098;2023-08-06T04:09:53;3.97;;;2.78;;
43807;SDS011;29438;50.664;10.098;2023-08-06T04:12:19;5.35;;;2.75;;
43807;SDS011;29438;50.664;10.098;2023-08-06T04:14:45;4.72;;;3.20;;
43807;SDS011;29438;50.664;10.098;2023-08-06T04:17:10;4.20;;;2.95;;
43807;SDS011;29438;50.664;10.098;2023-08-06T04:19:36;5.05;;;3.00;;
43807;SDS011;29438;50.664;10.098;2023-08-06T04:22:01;4.95;;;2.80;;
43807;SDS011;29438;50.664;10.098;2023-08-06T04:24:27;4.32;;;2.90;;
43807;SDS011;29438;50.664;10.098;2023-08-06T04:26:53;5.82;;;3.15;;
43807;SDS011;29438;50.664;10.098;2023-08-06T04:29:18;5.07;;;3.17;;
43807;SDS011;29438;50.664;10.098;2023-08-06T04:31:44;5.10;;;3.35;;
43807;SDS011;29438;50.664;10.098;2023-08-06T04:34:09;4.80;;;3.22;;
43807;SDS011;29438;50.664;10.098;2023-08-06T04:36:35;5.30;;;3.38;;
43807;SDS011;29438;50.664;10.098;2023-08-06T04:39:00;4.75;;;3.20;;
43807;SDS011;29438;50.664;10.098;2023-08-06T04:41:26;6.10;;;3.65;;
43807;SDS011;29438;50.664;10.098;2023-08-06T04:43:51;6.90;;;3.60;;
43807;SDS011;29438;50.664;10.098;2023-08-06T04:46:17;6.05;;;3.35;;
43807;SDS011;29438;50.664;10.098;2023-08-06T04:48:42;6.22;;;3.58;;
43807;SDS011;29438;50.664;10.098;2023-08-06T04:51:08;5.63;;;3.45;;
43807;SDS011;29438;50.664;10.098;2023-08-06T04:53:33;6.10;;;3.67;;
43807;SDS011;29438;50.664;10.098;2023-08-06T04:55:59;5.82;;;3.75;;
43807;SDS011;29438;50.664;10.098;2023-08-06T04:58:24;5.80;;;3.70;;
43807;SDS011;29438;50.664;10.098;2023-08-06T05:00:50;6.00;;;3.90;;
43807;SDS011;29438;50.664;10.098;2023-08-06T05:03:15;6.35;;;3.90;;
43807;SDS011;29438;50.664;10.098;2023-08-06T05:05:41;6.28;;;3.50;;
43807;SDS011;29438;50.664;10.098;2023-08-06T05:08:07;6.78;;;3.72;;
43807;SDS011;29438;50.664;10.098;2023-08-06T05:10:32;6.95;;;3.55;;
43807;SDS011;29438;50.664;10.098;2023-08-06T05:12:58;5.25;;;3.38;;
43807;SDS011;29438;50.664;10.098;2023-08-06T05:15:23;5.30;;;3.33;;
43807;SDS011;29438;50.664;10.098;2023-08-06T05:17:50;5.57;;;3.45;;
43807;SDS011;29438;50.664;10.098;2023-08-06T05:20:16;5.22;;;3.53;;
43807;SDS011;29438;50.664;10.098;2023-08-06T05:22:42;6.28;;;3.90;;
43807;SDS011;29438;50.664;10.098;2023-08-06T05:25:08;6.18;;;3.72;;
43807;SDS011;29438;50.664;10.098;2023-08-06T05:27:33;5.18;;;3.42;;
43807;SDS011;29438;50.664;10.098;2023-08-06T05:29:59;5.18;;;3.30;;
43807;SDS011;29438;50.664;10.098;2023-08-06T05:32:25;6.00;;;3.70;;
43807;SDS011;29438;50.664;10.098;2023-08-06T05:34:50;6.07;;;3.53;;
43807;SDS011;29438;50.664;10.098;2023-08-06T05:37:16;5.50;;;3.70;;
43807;SDS011;29438;50.664;10.098;2023-08-06T05:39:41;5.70;;;3.30;;
43807;SDS011;29438;50.664;10.098;2023-08-06T05:42:07;4.88;;;3.35;;
43807;SDS011;29438;50.664;10.098;2023-08-06T05:44:33;4.80;;;3.30;;
43807;SDS011;29438;50.664;10.098;2023-08-06T05:46:58;7.22;;;3.72;;
43807;SDS011;29438;50.664;10.098;2023-08-06T05:49:24;6.32;;;3.60;;
43807;SDS011;29438;50.664;10.098;2023-08-06T05:51:49;5.43;;;3.28;;
43807;SDS011;29438;50.664;10.098;2023-08-06T05:54:15;6.22;;;3.13;;
43807;SDS011;29438;50.664;10.098;2023-08-06T05:56:40;5.38;;;2.95;;
43807;SDS011;29438;50.664;10.098;2023-08-06T05:59:06;4.60;;;2.95;;
43807;SDS011;29438;50.664;10.098;2023-08-06T06:01:31;4.30;;;2.70;;
43807;SDS011;29438;50.664;10.098;2023-08-06T06:03:57;5.20;;;2.55;;
43807;SDS011;29438;50.664;10.098;2023-08-06T06:06:22;6.18;;;2.78;;
43807;SDS011;29438;50.664;10.098;2023-08-06T06:08:48;5.25;;;3.17;;
43807;SDS011;29438;50.664;10.098;2023-08-06T06:11:14;5.50;;;2.88;;
43807;SDS011;29438;50.664;10.098;2023-08-06T06:13:39;6.78;;;3.17;;
43807;SDS011;29438;50.664;10.098;2023-08-06T06:16:05;5.13;;;3.13;;
43807;SDS011;29438;50.664;10.098;2023-08-06T06:18:30;4.82;;;2.95;;
43807;SDS011;29438;50.664;10.098;2023-08-06T06:20:56;5.03;;;3.20;;
43807;SDS011;29438;50.664;10.098;2023-08-06T06:23:22;4.60;;;2.83;;
43807;SDS011;29438;50.664;10.098;2023-08-06T06:25:50;4.28;;;2.72;;
43807;SDS011;29438;50.664;10.098;2023-08-06T06:28:19;4.97;;;2.88;;
43807;SDS011;29438;50.664;10.098;2023-08-06T06:30:44;5.00;;;3.05;;
43807;SDS011;29438;50.664;10.098;2023-08-06T06:33:10;5.10;;;2.72;;
43807;SDS011;29438;50.664;10.098;2023-08-06T06:35:36;5.05;;;3.05;;
43807;SDS011;29438;50.664;10.098;2023-08-06T06:38:02;4.20;;;2.60;;
43807;SDS011;29438;50.664;10.098;2023-08-06T06:40:27;4.93;;;2.85;;
43807;SDS011;29438;50.664;10.098;2023-08-06T06:42:53;5.07;;;2.85;;
43807;SDS011;29438;50.664;10.098;2023-08-06T06:45:18;4.90;;;2.95;;
43807;SDS011;29438;50.664;10.098;2023-08-06T06:47:44;6.05;;;3.47;;
43807;SDS011;29438;50.664;10.098;2023-08-06T06:50:09;5.20;;;3.03;;
43807;SDS011;29438;50.664;10.098;2023-08-06T06:52:35;5.05;;;2.60;;
43807;SDS011;29438;50.664;10.098;2023-08-06T06:55:00;3.58;;;2.20;;
43807;SDS011;29438;50.664;10.098;2023-08-06T06:57:26;2.85;;;2.05;;
43807;SDS011;29438;50.664;10.098;2023-08-06T06:59:52;4.93;;;2.35;;
43807;SDS011;29438;50.664;10.098;2023-08-06T07:02:17;4.63;;;2.60;;
43807;SDS011;29438;50.664;10.098;2023-08-06T07:04:43;8.95;;;2.50;;
43807;SDS011;29438;50.664;10.098;2023-08-06T07:07:08;11.60;;;5.57;;
43807;SDS011;29438;50.664;10.098;2023-08-06T07:09:35;2.90;;;1.40;;
43807;SDS011;29438;50.664;10.098;2023-08-06T07:12:00;22.90;;;11.10;;
43807;SDS011;29438;50.664;10.098;2023-08-06T07:14:26;21.25;;;10.23;;
43807;SDS011;29438;50.664;10.098;2023-08-06T07:16:53;6.97;;;3.45;;
43807;SDS011;29438;50.664;10.098;2023-08-06T07:19:19;7.18;;;3.70;;
43807;SDS011;29438;50.664;10.098;2023-08-06T07:21:45;2.92;;;1.25;;
43807;SDS011;29438;50.664;10.098;2023-08-06T07:24:11;1.70;;;0.57;;
43807;SDS011;29438;50.664;10.098;2023-08-06T07:26:36;1.10;;;0.40;;
43807;SDS011;29438;50.664;10.098;2023-08-06T07:29:02;1.75;;;0.55;;
43807;SDS011;29438;50.664;10.098;2023-08-06T07:31:28;1.63;;;0.40;;
43807;SDS011;29438;50.664;10.098;2023-08-06T07:33:53;2.20;;;0.50;;
43807;SDS011;29438;50.664;10.098;2023-08-06T07:36:19;1.70;;;0.60;;
43807;SDS011;29438;50.664;10.098;2023-08-06T07:38:45;1.35;;;0.60;;
43807;SDS011;29438;50.664;10.098;2023-08-06T07:41:10;2.47;;;0.50;;
43807;SDS011;29438;50.664;10.098;2023-08-06T07:43:36;2.15;;;0.50;;
43807;SDS011;29438;50.664;10.098;2023-08-06T07:46:02;3.70;;;0.80;;
43807;SDS011;29438;50.664;10.098;2023-08-06T07:48:28;4.15;;;0.70;;
43807;SDS011;29438;50.664;10.098;2023-08-06T07:50:54;3.88;;;0.82;;
43807;SDS011;29438;50.664;10.098;2023-08-06T07:53:22;2.47;;;0.50;;
43807;SDS011;29438;50.664;10.098;2023-08-06T07:55:51;1.30;;;0.50;;
43807;SDS011;29438;50.664;10.098;2023-08-06T07:58:18;1.67;;;0.40;;
43807;SDS011;29438;50.664;10.098;2023-08-06T08:00:45;1.48;;;0.50;;
43807;SDS011;29438;50.664;10.098;2023-08-06T08:03:11;1.40;;;0.50;;
43807;SDS011;29438;50.664;10.098;2023-08-06T08:05:41;1.55;;;0.40;;
43807;SDS011;29438;50.664;10.098;2023-08-06T08:08:09;0.88;;;0.30;;
43807;SDS011;29438;50.664;10.098;2023-08-06T08:10:35;0.80;;;0.20;;
43807;SDS011;29438;50.664;10.098;2023-08-06T08:13:04;1.70;;;0.60;;
43807;SDS011;29438;50.664;10.098;2023-08-06T08:15:30;1.40;;;0.40;;
43807;SDS011;29438;50.664;10.098;2023-08-06T08:17:57;1.75;;;0.40;;
43807;SDS011;29438;50.664;10.098;2023-08-06T08:20:23;1.23;;;0.40;;
43807;SDS011;29438;50.664;10.098;2023-08-06T08:22:48;1.73;;;0.70;;
43807;SDS011;29438;50.664;10.098;2023-08-06T08:25:15;2.72;;;0.60;;
43807;SDS011;29438;50.664;10.098;2023-08-06T08:27:41;1.95;;;0.82;;
43807;SDS011;29438;50.664;10.098;2023-08-06T08:30:07;3.25;;;0.90;;
43807;SDS011;29438;50.664;10.098;2023-08-06T08:32:32;2.30;;;0.60;;
43807;SDS011;29438;50.664;10.098;2023-08-06T08:34:58;0.93;;;0.50;;
43807;SDS011;29438;50.664;10.098;2023-08-06T08:37:23;2.15;;;0.50;;
43807;SDS011;29438;50.664;10.098;2023-08-06T08:39:49;1.95;;;0.52;;
43807;SDS011;29438;50.664;10.098;2023-08-06T08:42:15;1.17;;;0.40;;
43807;SDS011;29438;50.664;10.098;2023-08-06T08:44:42;2.80;;;0.50;;
43807;SDS011;29438;50.664;10.098;2023-08-06T08:47:08;2.33;;;0.80;;
43807;SDS011;29438;50.664;10.098;2023-08-06T08:49:35;2.65;;;0.93;;
43807;SDS011;29438;50.664;10.098;2023-08-06T08:52:02;2.95;;;0.82;;
43807;SDS011;29438;50.664;10.098;2023-08-06T08:54:31;1.70;;;0.68;;
43807;SDS011;29438;50.664;10.098;2023-08-06T08:56:58;1.52;;;0.60;;
43807;SDS011;29438;50.664;10.098;2023-08-06T08:59:23;2.30;;;0.60;;
43807;SDS011;29438;50.664;10.098;2023-08-06T09:01:49;2.53;;;0.43;;
43807;SDS011;29438;50.664;10.098;2023-08-06T09:04:16;1.15;;;0.40;;
43807;SDS011;29438;50.664;10.098;2023-08-06T09:06:43;1.38;;;0.40;;
43807;SDS011;29438;50.664;10.098;2023-08-06T09:09:13;1.92;;;0.43;;
43807;SDS011;29438;50.664;10.098;2023-08-06T09:11:43;0.85;;;0.40;;
43807;SDS011;29438;50.664;10.098;2023-08-06T09:14:09;1.55;;;0.30;;
43807;SDS011;29438;50.664;10.098;2023-08-06T09:16:36;1.23;;;0.25;;
43807;SDS011;29438;50.664;10.098;2023-08-06T09:19:11;1.33;;;0.30;;
43807;SDS011;29438;50.664;10.098;2023-08-06T09:21:41;1.00;;;0.38;;
43807;SDS011;29438;50.664;10.098;2023-08-06T09:24:13;1.30;;;0.40;;
43807;SDS011;29438;50.664;10.098;2023-08-06T09:26:39;1.90;;;0.40;;
43807;SDS011;29438;50.664;10.098;2023-08-06T09:29:06;0.80;;;0.25;;
43807;SDS011;29438;50.664;10.098;2023-08-06T09:31:42;0.95;;;0.20;;
43807;SDS011;29438;50.664;10.098;2023-08-06T09:36:46;0.32;;;0.10;;
43807;SDS011;29438;50.664;10.098;2023-08-06T09:39:14;1.30;;;0.10;;
43807;SDS011;29438;50.664;10.098;2023-08-06T09:41:55;0.43;;;0.00;;
43807;SDS011;29438;50.664;10.098;2023-08-06T09:44:25;0.52;;;0.10;;
43807;SDS011;29438;50.664;10.098;2023-08-06T09:46:55;0.20;;;0.10;;
43807;SDS011;29438;50.664;10.098;2023-08-06T09:49:25;0.40;;;0.10;;
43807;SDS011;29438;50.664;10.098;2023-08-06T09:51:52;0.30;;;0.00;;
43807;SDS011;29438;50.664;10.098;2023-08-06T09:54:20;0.30;;;0.10;;
43807;SDS011;29438;50.664;10.098;2023-08-06T09:56:47;0.30;;;0.10;;
43807;SDS011;29438;50.664;10.098;2023-08-06T09:59:13;0.10;;;0.00;;
43807;SDS011;29438;50.664;10.098;2023-08-06T10:01:41;0.25;;;0.00;;
43807;SDS011;29438;50.664;10.098;2023-08-06T10:04:06;0.15;;;0.00;;
43807;SDS011;29438;50.664;10.098;2023-08-06T10:06:33;0.25;;;0.10;;
43807;SDS011;29438;50.664;10.098;2023-08-06T10:09:01;0.40;;;0.10;;
43807;SDS011;29438;50.664;10.098;2023-08-06T10:11:27;0.50;;;0.10;;
43807;SDS011;29438;50.664;10.098;2023-08-06T10:13:55;0.20;;;0.00;;
43807;SDS011;29438;50.664;10.098;2023-08-06T10:16:33;0.10;;;0.00;;
43807;SDS011;29438;50.664;10.098;2023-08-06T10:19:00;0.17;;;0.00;;
43807;SDS011;29438;50.664;10.098;2023-08-06T10:21:26;0.10;;;0.00;;
43807;SDS011;29438;50.664;10.098;2023-08-06T10:23:55;0.57;;;0.00;;
43807;SDS011;29438;50.664;10.098;2023-08-06T10:26:24;0.57;;;0.10;;
43807;SDS011;29438;50.664;10.098;2023-08-06T10:28:51;1.23;;;0.10;;
43807;SDS011;29438;50.664;10.098;2023-08-06T10:31:17;0.20;;;0.03;;
43807;SDS011;29438;50.664;10.098;2023-08-06T10:33:44;0.10;;;0.00;;
43807;SDS011;29438;50.664;10.098;2023-08-06T10:36:11;0.40;;;0.10;;
43807;SDS011;29438;50.664;10.098;2023-08-06T10:38:47;0.40;;;0.00;;
43807;SDS011;29438;50.664;10.098;2023-08-06T10:44:06;0.15;;;0.00;;
43807;SDS011;29438;50.664;10.098;2023-08-06T10:46:33;0.63;;;0.10;;
43807;SDS011;29438;50.664;10.098;2023-08-06T10:48:59;1.02;;;0.00;;
43807;SDS011;29438;50.664;10.098;2023-08-06T10:51:25;0.10;;;0.00;;
43807;SDS011;29438;50.664;10.098;2023-08-06T10:53:52;0.30;;;0.00;;
43807;SDS011;29438;50.664;10.098;2023-08-06T10:56:19;0.82;;;0.00;;
43807;SDS011;29438;50.664;10.098;2023-08-06T10:58:49;0.35;;;0.00;;
43807;SDS011;29438;50.664;10.098;2023-08-06T11:01:16;0.30;;;0.00;;
43807;SDS011;29438;50.664;10.098;2023-08-06T11:03:43;0.10;;;0.00;;
43807;SDS011;29438;50.664;10.098;2023-08-06T11:06:09;0.20;;;0.00;;
43807;SDS011;29438;50.664;10.098;2023-08-06T11:08:36;0.03;;;0.00;;
43807;SDS011;29438;50.664;10.098;2023-08-06T11:11:13;0.45;;;0.00;;
43807;SDS011;29438;50.664;10.098;2023-08-06T11:13:40;0.60;;;0.00;;
43807;SDS011;29438;50.664;10.098;2023-08-06T11:16:06;0.20;;;0.00;;
43807;SDS011;29438;50.664;10.098;2023-08-06T11:18:34;0.10;;;0.00;;
43807;SDS011;29438;50.664;10.098;2023-08-06T11:21:00;0.63;;;0.00;;
43807;SDS011;29438;50.664;10.098;2023-08-06T11:23:27;1.75;;;0.00;;
43807;SDS011;29438;50.664;10.098;2023-08-06T11:25:56;0.40;;;0.00;;
43807;SDS011;29438;50.664;10.098;2023-08-06T11:28:23;0.20;;;0.00;;
43807;SDS011;29438;50.664;10.098;2023-08-06T11:30:49;1.77;;;0.10;;
43807;SDS011;29438;50.664;10.098;2023-08-06T11:33:22;0.20;;;0.00;;
43807;SDS011;29438;50.664;10.098;2023-08-06T11:35:50;1.30;;;0.08;;
43807;SDS011;29438;50.664;10.098;2023-08-06T11:38:16;0.20;;;0.00;;
43807;SDS011;29438;50.664;10.098;2023-08-06T11:40:43;1.85;;;0.00;;
43807;SDS011;29438;50.664;10.098;2023-08-06T11:43:10;0.35;;;0.00;;
43807;SDS011;29438;50.664;10.098;2023-08-06T11:45:37;0.10;;;0.00;;
43807;SDS011;29438;50.664;10.098;2023-08-06T11:48:02;0.40;;;0.00;;
43807;SDS011;29438;50.664;10.098;2023-08-06T11:50:28;0.17;;;0.00;;
43807;SDS011;29438;50.664;10.098;2023-08-06T11:52:59;0.60;;;0.10;;
43807;SDS011;29438;50.664;10.098;2023-08-06T11:55:26;0.45;;;0.10;;
43807;SDS011;29438;50.664;10.098;2023-08-06T11:57:53;0.20;;;0.00;;
43807;SDS011;29438;50.664;10.098;2023-08-06T12:00:19;0.20;;;0.00;;
43807;SDS011;29438;50.664;10.098;2023-08-06T12:02:47;1.20;;;0.00;;
43807;SDS011;29438;50.664;10.098;2023-08-06T12:05:15;0.50;;;0.00;;
43807;SDS011;29438;50.664;10.098;2023-08-06T12:07:42;0.43;;;0.00;;
43807;SDS011;29438;50.664;10.098;2023-08-06T12:10:15;0.10;;;0.00;;
43807;SDS011;29438;50.664;10.098;2023-08-06T12:12:41;0.20;;;0.00;;
43807;SDS011;29438;50.664;10.098;2023-08-06T12:15:07;0.10;;;0.00;;
43807;SDS011;29438;50.664;10.098;2023-08-06T12:17:34;0.65;;;0.00;;
43807;SDS011;29438;50.664;10.098;2023-08-06T12:20:00;0.40;;;0.10;;
43807;SDS011;29438;50.664;10.098;2023-08-06T12:22:26;0.35;;;0.10;;
43807;SDS011;29438;50.664;10.098;2023-08-06T12:24:51;2.00;;;0.20;;
43807;SDS011;29438;50.664;10.098;2023-08-06T12:27:17;0.50;;;0.10;;
43807;SDS011;29438;50.664;10.098;2023-08-06T12:29:43;0.68;;;0.10;;
43807;SDS011;29438;50.664;10.098;2023-08-06T12:32:10;0.38;;;0.10;;
43807;SDS011;29438;50.664;10.098;2023-08-06T12:34:40;0.32;;;0.10;;
43807;SDS011;29438;50.664;10.098;2023-08-06T12:37:06;0.20;;;0.10;;
43807;SDS011;29438;50.664;10.098;2023-08-06T12:39:33;0.60;;;0.10;;
43807;SDS011;29438;50.664;10.098;2023-08-06T12:42:02;0.35;;;0.10;;
43807;SDS011;29438;50.664;10.098;2023-08-06T12:44:29;0.40;;;0.10;;
43807;SDS011;29438;50.664;10.098;2023-08-06T12:46:55;0.30;;;0.10;;
43807;SDS011;29438;50.664;10.098;2023-08-06T12:49:21;0.60;;;0.10;;
43807;SDS011;29438;50.664;10.098;2023-08-06T12:51:47;0.30;;;0.10;;
43807;SDS011;29438;50.664;10.098;2023-08-06T12:54:14;1.13;;;0.10;;
43807;SDS011;29438;50.664;10.098;2023-08-06T12:56:41;0.47;;;0.10;;
43807;SDS011;29438;50.664;10.098;2023-08-06T12:59:06;0.38;;;0.00;;
43807;SDS011;29438;50.664;10.098;2023-08-06T13:01:32;0.50;;;0.10;;
43807;SDS011;29438;50.664;10.098;2023-08-06T13:03:57;0.93;;;0.17;;
43807;SDS011;29438;50.664;10.098;2023-08-06T13:06:24;0.77;;;0.10;;
43807;SDS011;29438;50.664;10.098;2023-08-06T13:08:50;3.22;;;0.30;;
43807;SDS011;29438;50.664;10.098;2023-08-06T13:11:15;0.50;;;0.10;;
43807;SDS011;29438;50.664;10.098;2023-08-06T13:13:41;0.70;;;0.10;;
43807;SDS011;29438;50.664;10.098;2023-08-06T13:16:06;0.22;;;0.10;;
43807;SDS011;29438;50.664;10.098;2023-08-06T13:18:32;2.38;;;0.10;;
43807;SDS011;29438;50.664;10.098;2023-08-06T13:20:57;0.65;;;0.10;;
43807;SDS011;29438;50.664;10.098;2023-08-06T13:23:23;1.05;;;0.28;;
43807;SDS011;29438;50.664;10.098;2023-08-06T13:25:48;0.98;;;0.20;;
43807;SDS011;29438;50.664;10.098;2023-08-06T13:28:14;0.40;;;0.10;;
43807;SDS011;29438;50.664;10.098;2023-08-06T13:30:40;0.57;;;0.20;;
43807;SDS011;29438;50.664;10.098;2023-08-06T13:33:10;0.65;;;0.17;;
43807;SDS011;29438;50.664;10.098;2023-08-06T13:35:36;0.65;;;0.13;;
43807;SDS011;29438;50.664;10.098;2023-08-06T13:38:02;0.55;;;0.20;;
43807;SDS011;29438;50.664;10.098;2023-08-06T13:40:32;1.10;;;0.20;;
43807;SDS011;29438;50.664;10.098;2023-08-06T13:42:58;1.73;;;0.40;;
43807;SDS011;29438;50.664;10.098;2023-08-06T13:45:24;0.80;;;0.20;;
43807;SDS011;29438;50.664;10.098;2023-08-06T13:47:50;0.80;;;0.20;;
43807;SDS011;29438;50.664;10.098;2023-08-06T13:50:16;1.45;;;0.55;;
43807;SDS011;29438;50.664;10.098;2023-08-06T13:52:41;0.68;;;0.20;;
43807;SDS011;29438;50.664;10.098;2023-08-06T13:55:07;0.57;;;0.20;;
43807;SDS011;29438;50.664;10.098;2023-08-06T13:57:34;1.27;;;0.20;;
43807;SDS011;29438;50.664;10.098;2023-08-06T13:59:59;0.90;;;0.40;;
43807;SDS011;29438;50.664;10.098;2023-08-06T14:02:25;0.70;;;0.20;;
43807;SDS011;29438;50.664;10.098;2023-08-06T14:04:52;0.40;;;0.20;;
43807;SDS011;29438;50.664;10.098;2023-08-06T14:07:18;2.15;;;0.32;;
43807;SDS011;29438;50.664;10.098;2023-08-06T14:09:43;0.50;;;0.10;;
43807;SDS011;29438;50.664;10.098;2023-08-06T14:12:09;0.50;;;0.10;;
43807;SDS011;29438;50.664;10.098;2023-08-06T14:14:35;0.70;;;0.10;;
43807;SDS011;29438;50.664;10.098;2023-08-06T14:17:00;0.45;;;0.10;;
43807;SDS011;29438;50.664;10.098;2023-08-06T14:19:26;0.52;;;0.17;;
43807;SDS011;29438;50.664;10.098;2023-08-06T14:21:52;1.05;;;0.22;;
43807;SDS011;29438;50.664;10.098;2023-08-06T14:24:18;0.50;;;0.10;;
43807;SDS011;29438;50.664;10.098;2023-08-06T14:26:44;1.88;;;0.30;;
43807;SDS011;29438;50.664;10.098;2023-08-06T14:29:09;0.82;;;0.10;;
43807;SDS011;29438;50.664;10.098;2023-08-06T14:31:35;1.42;;;0.20;;
43807;SDS011;29438;50.664;10.098;2023-08-06T14:34:00;1.70;;;0.20;;
43807;SDS011;29438;50.664;10.098;2023-08-06T14:36:27;2.33;;;0.35;;
43807;SDS011;29438;50.664;10.098;2023-08-06T14:38:52;4.22;;;0.50;;
43807;SDS011;29438;50.664;10.098;2023-08-06T14:41:18;1.33;;;0.20;;
43807;SDS011;29438;50.664;10.098;2023-08-06T14:43:43;2.00;;;0.60;;
43807;SDS011;29438;50.664;10.098;2023-08-06T14:46:09;2.47;;;1.30;;